createdAt,value
2019-03-15T00:01:13.334Z,24.00
2019-03-15T00:03:42.284Z,24.00
2019-03-15T00:06:10.764Z,24.00
2019-03-15T00:08:39.440Z,23.90
2019-03-15T00:11:07.478Z,23.90
2019-03-15T00:13:35.657Z,23.90
2019-03-15T00:16:04.337Z,23.90
2019-03-15T00:18:32.446Z,24.00
2019-03-15T00:21:00.710Z,24.00
2019-03-15T00:23:30.037Z,24.00
2019-03-15T00:25:58.110Z,23.90
2019-03-15T00:28:26.352Z,24.00
2019-03-15T00:30:54.413Z,23.90
2019-03-15T00:33:22.392Z,23.90
2019-03-15T00:35:50.715Z,23.90
2019-03-15T00:38:18.753Z,23.90
2019-03-15T00:40:47.846Z,24.00
2019-03-15T00:43:16.002Z,24.00
2019-03-15T00:45:44.318Z,24.00
2019-03-15T00:48:12.344Z,23.90
2019-03-15T00:50:40.453Z,24.00
2019-03-15T00:53:08.648Z,24.00
2019-03-15T00:55:36.737Z,24.10
2019-03-15T00:58:07.890Z,24.20
2019-03-15T01:00:35.975Z,24.10
2019-03-15T01:03:04.169Z,24.10
2019-03-15T01:05:33.624Z,24.10
2019-03-15T01:08:01.661Z,24.10
2019-03-15T01:10:30.271Z,24.30
2019-03-15T01:12:58.639Z,24.30
2019-03-15T01:15:26.847Z,24.20
2019-03-15T01:17:55.055Z,24.10
2019-03-15T01:20:23.364Z,23.90
2019-03-15T01:22:51.537Z,23.90
2019-03-15T01:25:19.712Z,23.90
2019-03-15T01:27:47.860Z,23.90
2019-03-15T01:30:15.870Z,23.90
2019-03-15T01:32:43.941Z,24.00
2019-03-15T01:35:12.080Z,24.00
2019-03-15T01:37:40.132Z,24.00
2019-03-15T01:40:08.126Z,24.10
2019-03-15T01:42:36.204Z,24.00
2019-03-15T01:45:04.415Z,24.00
2019-03-15T01:47:32.638Z,24.00
2019-03-15T01:50:00.599Z,24.00
2019-03-15T01:52:28.668Z,24.00
2019-03-15T01:54:56.871Z,24.00
2019-03-15T01:57:24.849Z,24.00
2019-03-15T01:59:52.946Z,24.00
2019-03-15T02:02:21.158Z,24.00
2019-03-15T02:04:49.114Z,24.00
2019-03-15T02:07:17.298Z,24.00
2019-03-15T02:09:45.319Z,24.10
2019-03-15T02:12:13.620Z,24.10
2019-03-15T02:14:42.127Z,24.00
2019-03-15T02:17:10.363Z,23.90
2019-03-15T02:19:38.404Z,24.00
2019-03-15T02:22:06.510Z,23.90
2019-03-15T02:24:36.486Z,23.90
2019-03-15T02:27:04.201Z,24.00
2019-03-15T02:29:32.437Z,23.90
2019-03-15T02:32:00.633Z,24.00
2019-03-15T02:34:28.751Z,24.00
2019-03-15T02:36:56.875Z,24.10
2019-03-15T02:39:25.206Z,24.10
2019-03-15T02:41:53.306Z,24.00
2019-03-15T02:44:21.432Z,24.00
2019-03-15T02:46:49.595Z,24.10
2019-03-15T02:49:18.009Z,24.10
2019-03-15T02:51:46.413Z,24.10
2019-03-15T02:54:17.329Z,24.00
2019-03-15T02:56:45.313Z,24.00
2019-03-15T02:59:13.609Z,24.00
2019-03-15T03:01:41.832Z,24.00
2019-03-15T03:04:09.890Z,24.10
2019-03-15T03:06:38.041Z,24.00
2019-03-15T03:09:08.115Z,24.00
2019-03-15T03:11:36.265Z,23.90
2019-03-15T03:14:04.578Z,24.00
2019-03-15T03:16:33.676Z,24.00
2019-03-15T03:19:02.065Z,24.10
2019-03-15T03:21:30.346Z,24.10
2019-03-15T03:23:58.426Z,24.10
2019-03-15T03:26:26.573Z,24.10
2019-03-15T03:28:55.897Z,24.10
2019-03-15T03:31:24.481Z,24.10
2019-03-15T03:33:52.755Z,24.00
2019-03-15T03:36:20.695Z,24.00
2019-03-15T03:38:48.953Z,24.00
2019-03-15T03:41:17.155Z,24.00
2019-03-15T03:43:45.391Z,24.00
2019-03-15T03:46:13.329Z,24.00
2019-03-15T03:48:41.959Z,24.00
2019-03-15T03:51:11.345Z,24.10
2019-03-15T03:53:39.356Z,24.10
2019-03-15T03:56:12.391Z,24.10
2019-03-15T03:58:40.478Z,24.20
2019-03-15T04:01:08.407Z,24.20
2019-03-15T04:03:36.888Z,24.30
2019-03-15T04:06:05.146Z,24.20
2019-03-15T04:08:33.403Z,24.10
2019-03-15T04:11:01.680Z,24.20
2019-03-15T04:13:29.712Z,24.20
2019-03-15T04:15:57.790Z,24.30
2019-03-15T04:18:26.034Z,24.30
2019-03-15T04:20:54.387Z,24.30
2019-03-15T04:23:22.592Z,24.10
2019-03-15T04:25:50.867Z,24.10
2019-03-15T04:28:19.916Z,24.10
2019-03-15T04:30:48.061Z,24.20
2019-03-15T04:33:16.499Z,24.10
2019-03-15T04:35:44.829Z,24.00
2019-03-15T04:38:12.803Z,24.00
2019-03-15T04:40:41.109Z,24.00
2019-03-15T04:43:09.425Z,23.90
2019-03-15T04:45:37.406Z,23.90
2019-03-15T04:48:05.633Z,24.00
2019-03-15T04:50:34.734Z,24.10
2019-03-15T04:53:03.505Z,24.10
2019-03-15T04:55:31.890Z,24.10
2019-03-15T04:58:01.111Z,24.00
2019-03-15T05:00:29.615Z,24.20
2019-03-15T05:02:57.850Z,24.20
2019-03-15T05:05:26.480Z,24.10
2019-03-15T05:07:54.605Z,24.10
2019-03-15T05:10:22.718Z,24.00
2019-03-15T05:12:50.785Z,23.90
2019-03-15T05:15:19.406Z,23.90
2019-03-15T05:17:47.470Z,23.90
2019-03-15T05:20:21.037Z,23.90
2019-03-15T05:22:47.974Z,23.90
2019-03-15T05:25:15.993Z,23.90
2019-03-15T05:27:43.957Z,23.90
2019-03-15T05:30:14.954Z,23.90
2019-03-15T05:32:42.972Z,23.90
2019-03-15T05:35:10.945Z,23.90
2019-03-15T05:37:40.332Z,23.80
2019-03-15T05:40:09.285Z,23.70
2019-03-15T05:42:37.336Z,23.70
2019-03-15T05:45:05.919Z,23.80
2019-03-15T05:47:33.905Z,23.80
2019-03-15T05:50:02.393Z,23.70
2019-03-15T05:52:30.562Z,23.70
2019-03-15T05:54:58.677Z,23.80
2019-03-15T05:57:26.760Z,23.80
2019-03-15T05:59:55.093Z,23.80
2019-03-15T06:02:23.158Z,23.70
2019-03-15T06:04:51.099Z,23.70
2019-03-15T06:07:19.514Z,23.70
2019-03-15T06:09:47.574Z,23.50
2019-03-15T06:12:17.232Z,23.60
2019-03-15T06:14:46.865Z,23.60
2019-03-15T06:17:14.862Z,23.60
2019-03-15T06:19:42.902Z,23.60
2019-03-15T06:22:11.830Z,23.70
2019-03-15T06:24:40.009Z,23.70
2019-03-15T06:27:07.944Z,23.60
2019-03-15T06:29:36.055Z,23.70
2019-03-15T06:32:04.415Z,23.60
2019-03-15T06:34:32.640Z,23.70
2019-03-15T06:37:00.724Z,23.60
2019-03-15T06:39:29.911Z,23.60
2019-03-15T06:41:57.958Z,23.60
2019-03-15T06:44:27.189Z,23.60
2019-03-15T06:46:55.190Z,23.60
2019-03-15T06:49:23.499Z,23.60
2019-03-15T06:51:51.538Z,23.60
2019-03-15T06:54:19.823Z,23.70
2019-03-15T06:56:48.016Z,23.70
2019-03-15T06:59:16.179Z,23.80
2019-03-15T07:01:44.283Z,23.70
2019-03-15T07:04:12.882Z,23.70
2019-03-15T07:06:40.869Z,23.70
2019-03-15T07:09:11.691Z,23.70
2019-03-15T07:11:39.736Z,23.60
2019-03-15T07:14:07.758Z,23.70
2019-03-15T07:16:38.173Z,23.70
2019-03-15T07:19:06.514Z,23.70
2019-03-15T07:21:36.767Z,23.60
2019-03-15T07:24:06.831Z,23.60
2019-03-15T07:26:34.983Z,23.70
2019-03-15T07:29:03.154Z,23.70
2019-03-15T07:31:31.706Z,23.70
2019-03-15T07:34:03.183Z,23.70
2019-03-15T07:36:31.595Z,23.60
2019-03-15T07:38:59.649Z,23.60
2019-03-15T07:41:27.656Z,23.50
2019-03-15T07:43:56.552Z,23.50
2019-03-15T07:46:25.926Z,23.50
2019-03-15T07:48:53.869Z,23.50
2019-03-15T07:51:23.041Z,23.50
2019-03-15T07:53:52.484Z,23.60
2019-03-15T07:56:20.595Z,23.70
2019-03-15T07:58:48.897Z,23.70
2019-03-15T08:01:17.394Z,23.70
2019-03-15T08:03:45.379Z,23.70
2019-03-15T08:06:13.706Z,23.60
2019-03-15T08:08:42.344Z,23.70
2019-03-15T08:11:10.528Z,23.70
2019-03-15T08:13:38.949Z,23.70
2019-03-15T08:16:07.229Z,23.70
2019-03-15T08:18:35.462Z,23.70
2019-03-15T08:21:04.379Z,23.60
2019-03-15T08:23:35.636Z,23.60
2019-03-15T08:26:03.993Z,23.50
2019-03-15T08:28:31.951Z,23.50
2019-03-15T08:31:00.073Z,23.60
2019-03-15T08:33:28.159Z,23.60
2019-03-15T08:35:56.430Z,23.70
2019-03-15T08:38:24.452Z,23.70
2019-03-15T08:40:52.606Z,23.60
2019-03-15T08:43:20.875Z,23.50
2019-03-15T08:45:49.148Z,23.40
2019-03-15T08:48:18.192Z,23.40
2019-03-15T08:50:46.975Z,23.30
2019-03-15T08:53:22.428Z,23.40
2019-03-15T08:55:50.571Z,23.60
2019-03-15T08:58:21.916Z,23.60
2019-03-15T09:00:48.176Z,23.60
2019-03-15T09:03:27.313Z,23.60
2019-03-15T09:05:47.124Z,23.60
2019-03-15T09:08:15.959Z,23.50
2019-03-15T09:10:44.368Z,23.50
2019-03-15T09:13:12.442Z,23.40
2019-03-15T09:15:40.777Z,23.50
2019-03-15T09:18:08.855Z,23.40
2019-03-15T09:20:37.236Z,23.50
2019-03-15T09:23:05.379Z,23.50
2019-03-15T09:25:33.597Z,23.50
2019-03-15T09:28:01.810Z,23.40
2019-03-15T09:30:30.595Z,23.50
2019-03-15T09:32:58.804Z,23.50
2019-03-15T09:35:26.904Z,23.50
2019-03-15T09:37:56.472Z,23.50
2019-03-15T09:40:25.850Z,23.40
2019-03-15T09:42:54.047Z,23.40
2019-03-15T09:45:22.207Z,23.50
2019-03-15T09:47:50.757Z,23.40
2019-03-15T09:50:33.825Z,23.40
2019-03-15T09:52:48.598Z,23.50
2019-03-15T09:55:17.195Z,23.50
2019-03-15T09:57:45.192Z,23.50
2019-03-15T10:00:13.240Z,23.40
2019-03-15T10:02:41.437Z,23.40
2019-03-15T10:05:11.412Z,23.40
2019-03-15T10:07:39.135Z,23.50
2019-03-15T10:10:13.350Z,23.40
2019-03-15T10:12:38.297Z,23.30
2019-03-15T10:15:07.969Z,23.30
2019-03-15T10:17:36.177Z,23.30
2019-03-15T10:20:04.510Z,23.30
2019-03-15T10:22:32.562Z,23.30
2019-03-15T10:25:00.727Z,23.30
2019-03-15T10:27:28.981Z,23.30
2019-03-15T10:29:57.341Z,23.20
2019-03-15T10:32:25.954Z,23.30
2019-03-15T10:34:53.919Z,23.30
2019-03-15T10:37:22.152Z,23.30
2019-03-15T10:39:50.243Z,23.30
2019-03-15T10:42:18.659Z,23.10
2019-03-15T10:44:46.790Z,23.10
2019-03-15T10:47:15.164Z,23.20
2019-03-15T10:49:43.426Z,23.30
2019-03-15T10:52:12.123Z,23.30
2019-03-15T10:54:40.249Z,23.30
2019-03-15T10:57:08.407Z,23.20
2019-03-15T10:59:36.727Z,23.30
2019-03-15T11:02:05.537Z,23.20
2019-03-15T11:04:33.857Z,23.30
2019-03-15T11:07:02.556Z,23.20
2019-03-15T11:09:31.515Z,23.20
2019-03-15T11:11:59.791Z,23.10
2019-03-15T11:14:28.135Z,23.20
2019-03-15T11:16:56.361Z,23.20
2019-03-15T11:19:24.442Z,23.20
2019-03-15T11:21:52.450Z,23.20
2019-03-15T11:24:20.763Z,23.20
2019-03-15T11:26:49.091Z,23.20
2019-03-15T11:29:17.236Z,23.20
2019-03-15T11:31:45.565Z,23.20
2019-03-15T11:34:13.746Z,23.20
2019-03-15T11:36:43.169Z,23.10
2019-03-15T11:39:12.740Z,23.00
2019-03-15T11:41:40.871Z,22.90
2019-03-15T11:44:09.699Z,22.90
2019-03-15T11:46:38.217Z,23.00
2019-03-15T11:49:06.379Z,23.10
2019-03-15T11:51:34.434Z,23.20
2019-03-15T11:54:02.620Z,23.20
2019-03-15T11:56:31.231Z,23.20
2019-03-15T11:58:59.465Z,23.10
2019-03-15T12:01:27.780Z,23.10
2019-03-15T12:03:55.928Z,23.10
2019-03-15T12:06:23.892Z,23.10
2019-03-15T12:08:52.063Z,23.20
2019-03-15T12:11:20.354Z,23.10
2019-03-15T12:13:48.486Z,23.00
2019-03-15T12:16:16.563Z,23.00
2019-03-15T12:18:44.612Z,23.00
2019-03-15T12:21:12.638Z,23.00
2019-03-15T12:23:40.734Z,22.90
2019-03-15T12:26:10.032Z,23.00
2019-03-15T12:28:38.226Z,23.00
2019-03-15T12:31:06.268Z,23.00
2019-03-15T12:33:34.309Z,23.00
2019-03-15T12:36:03.391Z,23.00
2019-03-15T12:38:31.741Z,23.10
2019-03-15T12:40:59.821Z,23.00
2019-03-15T12:43:28.105Z,22.90
2019-03-15T12:45:56.226Z,22.80
2019-03-15T12:48:24.351Z,23.00
2019-03-15T12:50:52.388Z,23.00
2019-03-15T12:53:20.566Z,23.00
2019-03-15T12:55:48.670Z,23.00
2019-03-15T12:58:16.681Z,23.00
2019-03-15T13:00:45.080Z,23.00
2019-03-15T13:03:13.216Z,23.00
2019-03-15T13:05:41.300Z,22.90
2019-03-15T13:08:10.058Z,22.90
2019-03-15T13:10:38.043Z,22.80
2019-03-15T13:13:06.185Z,22.80
2019-03-15T13:15:34.532Z,22.90
2019-03-15T13:18:02.643Z,22.90
2019-03-15T13:20:30.688Z,22.80
2019-03-15T13:22:58.951Z,22.80
2019-03-15T13:25:26.981Z,22.80
2019-03-15T13:27:55.593Z,22.70
2019-03-15T13:30:23.659Z,22.80
2019-03-15T13:32:52.510Z,22.80
2019-03-15T13:35:20.626Z,22.70
2019-03-15T13:37:48.764Z,22.60
2019-03-15T13:40:16.728Z,22.80
2019-03-15T13:42:45.048Z,22.70
2019-03-15T13:45:13.220Z,22.70
2019-03-15T13:47:41.301Z,22.70
2019-03-15T13:50:09.529Z,22.50
2019-03-15T13:52:37.911Z,22.50
2019-03-15T13:55:11.071Z,22.40
2019-03-15T13:57:39.373Z,22.30
2019-03-15T14:00:07.459Z,22.50
2019-03-15T14:02:35.743Z,22.60
2019-03-15T14:05:03.959Z,22.60
2019-03-15T14:07:33.103Z,22.70
2019-03-15T14:10:03.932Z,22.70
2019-03-15T14:12:30.879Z,22.40
2019-03-15T14:14:59.143Z,22.00
2019-03-15T14:17:28.574Z,21.70
2019-03-15T14:19:57.283Z,21.80
2019-03-15T14:22:25.362Z,21.60
2019-03-15T14:24:53.658Z,21.80
2019-03-15T14:27:32.533Z,21.70
2019-03-15T14:29:51.548Z,21.80
2019-03-15T14:32:19.701Z,22.30
2019-03-15T14:34:47.725Z,22.40
2019-03-15T14:37:18.643Z,22.50
2019-03-15T14:39:46.889Z,22.60
2019-03-15T14:42:15.461Z,22.50
2019-03-15T14:44:43.652Z,22.50
2019-03-15T14:47:11.800Z,22.60
2019-03-15T14:49:43.173Z,22.60
2019-03-15T14:52:14.267Z,22.60
2019-03-15T14:54:42.574Z,22.70
2019-03-15T14:57:12.610Z,22.70
2019-03-15T14:59:43.496Z,22.60
2019-03-15T15:02:12.047Z,22.50
2019-03-15T15:04:40.044Z,22.60
2019-03-15T15:07:08.025Z,22.70
2019-03-15T15:09:36.204Z,22.60
2019-03-15T15:12:04.350Z,22.60
2019-03-15T15:14:32.310Z,22.50
2019-03-15T15:17:00.629Z,22.50
2019-03-15T15:19:28.930Z,22.60
2019-03-15T15:21:57.034Z,22.60
2019-03-15T15:24:25.366Z,22.60
2019-03-15T15:26:53.613Z,22.50
2019-03-15T15:29:22.203Z,22.60
2019-03-15T15:31:50.831Z,22.50
2019-03-15T15:34:21.545Z,22.50
2019-03-15T15:36:48.431Z,22.50
2019-03-15T15:39:16.842Z,22.50
2019-03-15T15:41:45.099Z,22.50
2019-03-15T15:44:13.256Z,22.50
2019-03-15T15:46:44.064Z,22.40
2019-03-15T15:49:12.142Z,22.50
2019-03-15T15:51:40.179Z,22.50
2019-03-15T15:54:08.538Z,22.50
2019-03-15T15:56:36.610Z,22.40
2019-03-15T15:59:06.843Z,22.40
2019-03-15T16:01:36.036Z,22.40
2019-03-15T16:04:04.459Z,22.60
2019-03-15T16:09:16.662Z,22.60
2019-03-15T16:11:47.285Z,22.50
2019-03-15T16:14:15.417Z,22.40
2019-03-15T16:16:43.692Z,22.30
2019-03-15T16:19:12.109Z,22.40
2019-03-15T16:21:40.349Z,22.30
2019-03-15T16:24:08.569Z,22.20
2019-03-15T16:26:36.515Z,22.20
2019-03-15T16:29:04.696Z,22.20
2019-03-15T16:31:33.422Z,22.30
2019-03-15T16:34:01.542Z,22.30
2019-03-15T16:36:29.856Z,22.20
2019-03-15T16:38:57.932Z,22.30
2019-03-15T16:41:26.392Z,22.10
2019-03-15T16:43:54.699Z,22.10
2019-03-15T16:46:22.820Z,22.10
2019-03-15T16:48:50.930Z,22.00
2019-03-15T16:51:19.968Z,21.90
2019-03-15T16:53:48.046Z,21.90
2019-03-15T16:56:16.034Z,22.00
2019-03-15T16:58:45.743Z,21.90
2019-03-15T17:01:13.613Z,21.90
2019-03-15T17:03:41.694Z,22.10
2019-03-15T17:06:09.819Z,22.30
2019-03-15T17:08:37.953Z,22.10
2019-03-15T17:11:05.910Z,22.20
2019-03-15T17:13:34.285Z,22.20
2019-03-15T17:16:02.325Z,22.10
2019-03-15T17:18:30.398Z,22.00
2019-03-15T17:20:58.575Z,22.00
2019-03-15T17:23:26.565Z,22.00
2019-03-15T17:28:30.533Z,22.00
2019-03-15T17:31:09.151Z,22.00
2019-03-15T17:33:28.429Z,22.00
2019-03-15T17:35:57.314Z,22.00
2019-03-15T17:38:25.405Z,22.00
2019-03-15T17:40:53.632Z,22.10
2019-03-15T17:43:22.294Z,22.10
2019-03-15T17:45:50.313Z,22.00
2019-03-15T17:48:18.456Z,22.00
2019-03-15T17:50:49.270Z,21.90
2019-03-15T17:53:17.467Z,21.90
2019-03-15T17:55:45.708Z,21.80
2019-03-15T17:58:13.685Z,21.70
2019-03-15T18:00:41.999Z,21.70
2019-03-15T18:03:20.557Z,21.90
2019-03-15T18:05:39.741Z,21.90
2019-03-15T18:08:07.748Z,21.90
2019-03-15T18:10:36.028Z,21.90
2019-03-15T18:13:04.212Z,21.80
2019-03-15T18:15:32.470Z,21.90
2019-03-15T18:18:00.857Z,21.90
2019-03-15T18:20:28.862Z,21.90
2019-03-15T18:22:57.560Z,21.90
2019-03-15T18:25:25.941Z,21.90
2019-03-15T18:27:55.101Z,21.80
2019-03-15T18:30:23.250Z,21.80
2019-03-15T18:32:51.525Z,21.70
2019-03-15T18:35:32.662Z,21.70
2019-03-15T18:37:49.396Z,21.60
2019-03-15T18:40:17.900Z,21.80
2019-03-15T18:42:46.264Z,21.70
2019-03-15T18:45:17.315Z,21.80
2019-03-15T18:47:46.323Z,21.80
2019-03-15T18:50:14.871Z,21.70
2019-03-15T18:52:43.568Z,21.50
2019-03-15T18:55:11.990Z,21.50
2019-03-15T18:57:39.948Z,21.60
2019-03-15T19:00:10.941Z,21.60
2019-03-15T19:02:39.318Z,21.50
2019-03-15T19:05:07.447Z,21.60
2019-03-15T19:07:35.383Z,21.70
2019-03-15T19:10:04.303Z,21.70
2019-03-15T19:12:33.501Z,21.80
2019-03-15T19:15:01.570Z,21.70
2019-03-15T19:17:31.036Z,21.70
2019-03-15T19:19:58.949Z,21.70
2019-03-15T19:22:28.220Z,21.70
2019-03-15T19:24:56.387Z,21.90
2019-03-15T19:27:24.933Z,21.80
2019-03-15T19:29:54.079Z,21.70
2019-03-15T19:32:22.674Z,21.60
2019-03-15T19:34:50.684Z,21.70
2019-03-15T19:37:19.239Z,21.70
2019-03-15T19:39:48.904Z,21.80
2019-03-15T19:42:16.846Z,21.70
2019-03-15T19:44:45.517Z,21.60
2019-03-15T19:47:14.233Z,21.70
2019-03-15T19:49:43.031Z,21.60
2019-03-15T19:52:11.219Z,21.60
2019-03-15T19:54:40.713Z,21.60
2019-03-15T19:57:09.446Z,21.50
2019-03-15T19:59:37.394Z,21.50
2019-03-15T20:02:05.588Z,21.50
2019-03-15T20:04:33.799Z,21.50
2019-03-15T20:07:02.647Z,21.50
2019-03-15T20:09:30.762Z,21.50
2019-03-15T20:11:58.784Z,21.50
2019-03-15T20:14:26.890Z,21.40
2019-03-15T20:16:55.369Z,21.40
2019-03-15T20:19:23.850Z,21.40
2019-03-15T20:21:52.142Z,21.40
2019-03-15T20:24:20.494Z,21.40
2019-03-15T20:26:48.623Z,21.50
2019-03-15T20:29:19.037Z,21.50
2019-03-15T20:31:47.161Z,21.50
2019-03-15T20:34:15.244Z,21.60
2019-03-15T20:36:43.519Z,21.50
2019-03-15T20:39:12.493Z,21.40
2019-03-15T20:41:41.304Z,21.40
2019-03-15T20:44:12.474Z,21.50
2019-03-15T20:46:40.504Z,21.60
2019-03-15T20:49:09.498Z,21.60
2019-03-15T20:51:37.586Z,21.40
2019-03-15T20:54:07.227Z,21.40
2019-03-15T20:56:35.753Z,21.40
2019-03-15T20:59:04.534Z,21.40
2019-03-15T21:01:32.473Z,21.50
2019-03-15T21:04:01.677Z,21.50
2019-03-15T21:06:30.498Z,21.50
2019-03-15T21:08:58.468Z,21.50
2019-03-15T21:11:26.515Z,21.40
2019-03-15T21:13:54.972Z,21.40
2019-03-15T21:16:23.341Z,21.50
2019-03-15T21:18:51.474Z,21.40
2019-03-15T21:21:19.611Z,21.40
2019-03-15T21:23:47.600Z,21.30
2019-03-15T21:26:15.933Z,21.30
2019-03-15T21:31:28.304Z,21.40
2019-03-15T21:33:56.476Z,21.50
2019-03-15T21:36:24.518Z,21.40
2019-03-15T21:38:53.002Z,21.30
2019-03-15T21:41:21.110Z,21.40
2019-03-15T21:43:49.213Z,21.40
2019-03-15T21:46:17.357Z,21.40
2019-03-15T21:48:45.943Z,21.30
2019-03-15T21:51:14.267Z,21.30
2019-03-15T21:53:42.249Z,21.40
2019-03-15T21:56:10.513Z,21.40
2019-03-15T21:58:38.480Z,21.40
2019-03-15T22:01:06.704Z,21.30
2019-03-15T22:03:35.144Z,21.30
2019-03-15T22:06:03.300Z,21.40
2019-03-15T22:08:31.321Z,21.30
2019-03-15T22:10:59.773Z,21.30
2019-03-15T22:13:29.989Z,21.40
2019-03-15T22:15:59.752Z,21.40
2019-03-15T22:18:27.784Z,21.40
2019-03-15T22:20:55.708Z,21.20
2019-03-15T22:23:24.078Z,21.30
2019-03-15T22:25:52.599Z,21.30
2019-03-15T22:28:21.321Z,21.30
2019-03-15T22:30:49.895Z,21.30
2019-03-15T22:33:20.978Z,21.20
2019-03-15T22:35:49.035Z,21.10
2019-03-15T22:38:26.173Z,21.10
